ืชื—ื ื•ืช METAR ืกืžื•ื›ื•ืช

 

ENCN - Kristiansand/Kje, Norway
Distance from station: 'ืฆ 17km
ืขื•ื“ื›ืŸ: 05/07/2022 20:50
Few Clouds
Few Clouds
 ืจื•ื— ืž 'ืžืฆืž
ืจื•ื—: 'ืžืฆืž 19 km/h
ื˜ืžืคืจื˜ื•ืจื”: 17°C
ื ืงื•ื“ืช ื”ื˜ืœ: 7°C
ืœื—ื•ืช: 52%
ื‘ืจื•ืžื˜ืจ: 1014 hPa
ืขื ื ื™ื: Few Clouds
ืจืื•ืช: 10 km
Cloud details: Few Clouds 1372 m
2022/07/05 18:50 ENCN 051850Z 30010KT 9999 FEW045 17/07 Q1014
EKSN - Sindal Airport, Denmark
Distance from station: 'ืžื“ืž 145km
ืขื•ื“ื›ืŸ: 30/12/2021 14:50
ืœื ืžืขื•ื“ื›ืŸ
Mist, ื‘ืขื™ืงืจ ืžืขื•ื ืŸ
Mist, ื‘ืขื™ืงืจ ืžืขื•ื ืŸ
 ืจื•ื— ืž 'ื“ืž
ืจื•ื—: 'ื“ืž 26 km/h
ื˜ืžืคืจื˜ื•ืจื”: 7°C
ืืคืงื˜ ื”ืจื•ื—: 3°C
ื ืงื•ื“ืช ื”ื˜ืœ: 7°C
ืœื—ื•ืช: 100%
ื‘ืจื•ืžื˜ืจ: 999 hPa
ืกื™ื›ื•ื: Mist
ืขื ื ื™ื: ื‘ืขื™ืงืจ ืžืขื•ื ืŸ
ืจืื•ืช: 5 km
Cloud details: ืžืขื•ื ืŸ ื—ืœืงื™ืช 183 m
ื‘ืขื™ืงืจ ืžืขื•ื ืŸ 244 m
2021/12/30 13:50 EKSN 301350Z 23014KT 4500 BR SCT006 BKN008 07/07 Q0999
 
EKYT - Alborg, Denmark
Distance from station: 'ื“ืž 153km
ืขื•ื“ื›ืŸ: 05/07/2022 20:50
Few Clouds
Few Clouds
 ืจื•ื— ืž 'ืž
ืจื•ื—: 'ืž 26 km/h
ื˜ืžืคืจื˜ื•ืจื”: 15°C
ื ืงื•ื“ืช ื”ื˜ืœ: 11°C
ืœื—ื•ืช: 77%
ื‘ืจื•ืžื˜ืจ: 1016 hPa
ืขื ื ื™ื: Few Clouds
ืจืื•ืช: 10 km
Cloud details: Few Clouds 914 m
2022/07/05 18:50 EKYT 051850Z AUTO 26014KT 9999 FEW030/// 15/11 Q1016
ENSN - Skien/Geiterygge, Norway
Distance from station: 'ืฆืž 153km
ืขื•ื“ื›ืŸ: 09/11/2015 09:50
ืœื ืžืขื•ื“ื›ืŸ
ื‘ื”ื™ืจ
ื‘ื”ื™ืจ
 ืจื•ื— ืž 'ื“ื“ืž
ืจื•ื—: 'ื“ื“ืž 19 km/h, ืžืฉื‘: 41 km/h
ื˜ืžืคืจื˜ื•ืจื”: 7°C
ืืคืงื˜ ื”ืจื•ื—: 4°C
ื ืงื•ื“ืช ื”ื˜ืœ: 3°C
ืœื—ื•ืช: 76%
ื‘ืจื•ืžื˜ืจ: 1000 hPa
ืกื™ื›ื•ื: ื‘ื”ื™ืจ
ืจืื•ืช: greater than 10 km
2015/11/09 08:50 ENSN 090850Z 20010G22KT 150V240 CAVOK 07/03 Q1000
 
ENZV - Stavanger/Sola(A, Norway
Distance from station: 'ืฆืž 166km
ืขื•ื“ื›ืŸ: 05/07/2022 20:50
ืžืขื•ื ืŸ ื—ืœืงื™ืช
ืžืขื•ื ืŸ ื—ืœืงื™ืช
 ืจื•ื— ืž 'ืฆืž
ืจื•ื—: 'ืฆืž 31 km/h
ื˜ืžืคืจื˜ื•ืจื”: 14°C
ื ืงื•ื“ืช ื”ื˜ืœ: 7°C
ืœื—ื•ืช: 63%
ื‘ืจื•ืžื˜ืจ: 1018 hPa
ืขื ื ื™ื: ืžืขื•ื ืŸ ื—ืœืงื™ืช
ืจืื•ืช: 10 km
Cloud details: ืžืขื•ื ืŸ ื—ืœืงื™ืช 914 m
2022/07/05 18:50 ENZV 051850Z 32017KT 9999 SCT030 14/07 Q1018 NOSIG
ENNO - Notodden, Norway
Distance from station: 'ืฆืฆืž 182km
ืขื•ื“ื›ืŸ: 05/07/2022 18:50
ืœื ืžืขื•ื“ื›ืŸ
ื‘ื”ื™ืจ
ื‘ื”ื™ืจ
 ืจื•ื— ืž 'ืžืฆืž
ืจื•ื—: 'ืžืฆืž 7 km/h
ื˜ืžืคืจื˜ื•ืจื”: 22°C
ื ืงื•ื“ืช ื”ื˜ืœ: 6°C
ืœื—ื•ืช: 36%
ื‘ืจื•ืžื˜ืจ: 1010 hPa
ืกื™ื›ื•ื: ื‘ื”ื™ืจ
ืจืื•ืช: greater than 10 km
2022/07/05 16:50 ENNO 051650Z 30004KT 230V020 CAVOK 22/06 Q1010
 
ENTO - Torp (civ/Nor-Af, Norway
Distance from station: 'ืฆืž 183km
ืขื•ื“ื›ืŸ: 05/07/2022 20:50
ื‘ื”ื™ืจ
ื‘ื”ื™ืจ
 ืจื•ื— ืž 'ื“ืž
ืจื•ื—: 'ื“ืž 9 km/h
ื˜ืžืคืจื˜ื•ืจื”: 17°C
ื ืงื•ื“ืช ื”ื˜ืœ: 8°C
ืœื—ื•ืช: 56%
ื‘ืจื•ืžื˜ืจ: 1010 hPa
ืกื™ื›ื•ื: ื‘ื”ื™ืจ
ืจืื•ืช: greater than 10 km
2022/07/05 18:50 ENTO 051850Z 23005KT CAVOK 17/08 Q1010 NOSIG
EKKA - Karup (dan-Afb), Denmark
Distance from station: 'ื“ื“ืž 209km
ืขื•ื“ื›ืŸ: 05/07/2022 21:03
ื‘ืขื™ืงืจ ืžืขื•ื ืŸ
ื‘ืขื™ืงืจ ืžืขื•ื ืŸ
 ืจื•ื— ืž 'ืž
ืจื•ื—: 'ืž 19 km/h
ื˜ืžืคืจื˜ื•ืจื”: 13°C
ื ืงื•ื“ืช ื”ื˜ืœ: 11°C
ืœื—ื•ืช: 88%
ื‘ืจื•ืžื˜ืจ: 1018 hPa
ืขื ื ื™ื: ื‘ืขื™ืงืจ ืžืขื•ื ืŸ
ืจืื•ืช: 10 km
Cloud details: ื‘ืขื™ืงืจ ืžืขื•ื ืŸ 762 m
ื‘ืขื™ืงืจ ืžืขื•ื ืŸ 1646 m
2022/07/05 19:03 EKKA 051903Z AUTO 28010KT 9999 BKN025/// BKN054/// 13/11 Q1018 RESHRA
 
ENHD - Haugesund/Karmoy, Norway
Distance from station: 'ืฆืž 216km
ืขื•ื“ื›ืŸ: 05/07/2022 20:50
ืžืขื•ื ืŸ ื—ืœืงื™ืช
ืžืขื•ื ืŸ ื—ืœืงื™ืช
 ืจื•ื— ืž 'ืฆืž
ืจื•ื—: 'ืฆืž 28 km/h
ื˜ืžืคืจื˜ื•ืจื”: 13°C
ื ืงื•ื“ืช ื”ื˜ืœ: 7°C
ืœื—ื•ืช: 67%
ื‘ืจื•ืžื˜ืจ: 1018 hPa
ืขื ื ื™ื: ืžืขื•ื ืŸ ื—ืœืงื™ืช
ืจืื•ืช: 10 km
Cloud details: ืžืขื•ื ืŸ ื—ืœืงื™ืช 792 m
2022/07/05 18:50 ENHD 051850Z 31015KT 9999 SCT026 13/07 Q1018
ENRY - Rygge (nor-Afb), Norway
Distance from station: 'ืฆืž 216km
ืขื•ื“ื›ืŸ: 05/07/2022 20:50
ืขื ื ื•ืช ื›ื‘ื“ื”
ืขื ื ื•ืช ื›ื‘ื“ื”
 ืจื•ื— ืž 'ื“
ืจื•ื—: 'ื“ 6 km/h
ื˜ืžืคืจื˜ื•ืจื”: 18°C
ื ืงื•ื“ืช ื”ื˜ืœ: 9°C
ืœื—ื•ืช: 56%
ื‘ืจื•ืžื˜ืจ: 1010 hPa
ืขื ื ื™ื: ืขื ื ื•ืช ื›ื‘ื“ื”
ืจืื•ืช: 10 km
Cloud details: ืžืขื•ื ืŸ ื—ืœืงื™ืช 2560 m
ืขื ื ื•ืช ื›ื‘ื“ื” 3048 m
2022/07/05 18:50 ENRY 051850Z AUTO 19003KT 150V230 9999NDV SCT084/// OVC100/// 18/09 Q1010
 
ESGP - Goteborg/Save (a, Sweden
Distance from station: 'ืž 230km
ืขื•ื“ื›ืŸ: 05/07/2022 20:50
ืžืขื•ื ืŸ ื—ืœืงื™ืช
ืžืขื•ื ืŸ ื—ืœืงื™ืช
 ืจื•ื— ืž 'ืžื“ืž
ืจื•ื—: 'ืžื“ืž 20 km/h
ื˜ืžืคืจื˜ื•ืจื”: 15°C
ื ืงื•ื“ืช ื”ื˜ืœ: 9°C
ืœื—ื•ืช: 68%
ื‘ืจื•ืžื˜ืจ: 1014 hPa
ืขื ื ื™ื: ืžืขื•ื ืŸ ื—ืœืงื™ืช
ืจืื•ืช: 10 km
Cloud details: ืžืขื•ื ืŸ ื—ืœืงื™ืช 762 m
2022/07/05 18:50 ESGP 051850Z 24011KT 9999 SCT025 15/09 Q1014
EKVJ - Stauning Airport, Denmark
Distance from station: 'ื“ 233km
ืขื•ื“ื›ืŸ: 05/07/2022 15:50
ืœื ืžืขื•ื“ื›ืŸ
ื‘ืขื™ืงืจ ืžืขื•ื ืŸ
ื‘ืขื™ืงืจ ืžืขื•ื ืŸ
 ืจื•ื— ืž 'ืž
ืจื•ื—: 'ืž 31 km/h
ื˜ืžืคืจื˜ื•ืจื”: 16°C
ื ืงื•ื“ืช ื”ื˜ืœ: 10°C
ืœื—ื•ืช: 68%
ื‘ืจื•ืžื˜ืจ: 1018 hPa
ืขื ื ื™ื: ื‘ืขื™ืงืจ ืžืขื•ื ืŸ
ืจืื•ืช: 10 km
Cloud details: ืžืขื•ื ืŸ ื—ืœืงื™ืช 914 m
ื‘ืขื™ืงืจ ืžืขื•ื ืŸ 1829 m
2022/07/05 13:50 EKVJ 051350Z 26017KT 9999 SCT030 BKN060 16/10 Q1018
 
ENSO - Stord/Soerstokke, Norway
Distance from station: 'ืฆืž 246km
ืขื•ื“ื›ืŸ: 05/07/2022 18:50
ืœื ืžืขื•ื“ื›ืŸ
ืžืขื•ื ืŸ ื—ืœืงื™ืช
ืžืขื•ื ืŸ ื—ืœืงื™ืช
 ืจื•ื— ืž 'ืฆืž
ืจื•ื—: 'ืฆืž 35 km/h
ื˜ืžืคืจื˜ื•ืจื”: 13°C
ื ืงื•ื“ืช ื”ื˜ืœ: 7°C
ืœื—ื•ืช: 67%
ื‘ืจื•ืžื˜ืจ: 1017 hPa
ืขื ื ื™ื: ืžืขื•ื ืŸ ื—ืœืงื™ืช
ืจืื•ืช: 10 km
Cloud details: Few Clouds 610 m
ืžืขื•ื ืŸ ื—ืœืงื™ืช 1067 m
2022/07/05 16:50 ENSO 051650Z 31019KT 9999 FEW020TCU SCT035 13/07 Q1017
EKAH - Tirstrup (civ/Mi, Denmark
Distance from station: 'ื“ืž 252km
ืขื•ื“ื›ืŸ: 05/07/2022 20:50
ืžืขื•ื ืŸ ื—ืœืงื™ืช
ืžืขื•ื ืŸ ื—ืœืงื™ืช
 ืจื•ื— ืž 'ืžื“ืž
ืจื•ื—: 'ืžื“ืž 17 km/h
ื˜ืžืคืจื˜ื•ืจื”: 16°C
ื ืงื•ื“ืช ื”ื˜ืœ: 10°C
ืœื—ื•ืช: 68%
ื‘ืจื•ืžื˜ืจ: 1017 hPa
ืขื ื ื™ื: ืžืขื•ื ืŸ ื—ืœืงื™ืช
ืจืื•ืช: 10 km
Cloud details: ืžืขื•ื ืŸ ื—ืœืงื™ืช 1250 m
2022/07/05 18:50 EKAH 051850Z AUTO 25009KT 220V280 9999 SCT041/// 16/10 Q1017
 
ESGT - Trollhattan (pvt, Sweden
Distance from station: 'ืž 255km
ืขื•ื“ื›ืŸ: 05/07/2022 20:50
ื‘ืขื™ืงืจ ืžืขื•ื ืŸ
ื‘ืขื™ืงืจ ืžืขื•ื ืŸ
 ืจื•ื— ืž 'ืžื“ืž
ืจื•ื—: 'ืžื“ืž 24 km/h
ื˜ืžืคืจื˜ื•ืจื”: 15°C
ื ืงื•ื“ืช ื”ื˜ืœ: 10°C
ืœื—ื•ืช: 72%
ื‘ืจื•ืžื˜ืจ: 1013 hPa
ืขื ื ื™ื: ื‘ืขื™ืงืจ ืžืขื•ื ืŸ
ืจืื•ืช: 10 km
Cloud details: Few Clouds 792 m
ืžืขื•ื ืŸ ื—ืœืงื™ืช 3353 m
ื‘ืขื™ืงืจ ืžืขื•ื ืŸ 5791 m
2022/07/05 18:50 ESGT 051850Z AUTO 24013KT 9999 FEW026/// SCT110/// BKN190/// 15/10 Q1013
ESGG - Goteborg/Landvet, Sweden
Distance from station: 'ืž 257km
ืขื•ื“ื›ืŸ: 05/07/2022 20:50
ื‘ืขื™ืงืจ ืžืขื•ื ืŸ
ื‘ืขื™ืงืจ ืžืขื•ื ืŸ
 ืจื•ื— ืž 'ืžื“ืž
ืจื•ื—: 'ืžื“ืž 19 km/h
ื˜ืžืคืจื˜ื•ืจื”: 13°C
ื ืงื•ื“ืช ื”ื˜ืœ: 9°C
ืœื—ื•ืช: 77%
ื‘ืจื•ืžื˜ืจ: 1014 hPa
ืขื ื ื™ื: ื‘ืขื™ืงืจ ืžืขื•ื ืŸ
ืจืื•ืช: 10 km
Cloud details: ืžืขื•ื ืŸ ื—ืœืงื™ืช 732 m
ื‘ืขื™ืงืจ ืžืขื•ื ืŸ 914 m
2022/07/05 18:50 ESGG 051850Z 25010KT 9999 SCT024 BKN030 13/09 Q1014
 
EKBI - Billund Airport, Denmark
Distance from station: 'ื“ื“ืž 269km
ืขื•ื“ื›ืŸ: 05/07/2022 20:50
ืžืขื•ื ืŸ ื—ืœืงื™ืช
ืžืขื•ื ืŸ ื—ืœืงื™ืช
 ืจื•ื— ืž 'ืž
ืจื•ื—: 'ืž 20 km/h
ื˜ืžืคืจื˜ื•ืจื”: 13°C
ื ืงื•ื“ืช ื”ื˜ืœ: 8°C
ืœื—ื•ืช: 72%
ื‘ืจื•ืžื˜ืจ: 1019 hPa
ืขื ื ื™ื: ืžืขื•ื ืŸ ื—ืœืงื™ืช
ืจืื•ืช: 10 km
Cloud details: ืžืขื•ื ืŸ ื—ืœืงื™ืช 792 m
2022/07/05 18:50 EKBI 051850Z AUTO 27011KT 9999 SCT026/// 13/08 Q1019
EKHN - Horns Rev B Heli, Denmark
Distance from station: 'ื“ 274km
ืขื•ื“ื›ืŸ: 09/08/2016 14:20
ืœื ืžืขื•ื“ื›ืŸ
Few Clouds
Few Clouds
 ืจื•ื— ืž 'ืžืฆืž
ืจื•ื—: 'ืžืฆืž 50 km/h, ืžืฉื‘: 72 km/h
ื˜ืžืคืจื˜ื•ืจื”: 14°C
ื ืงื•ื“ืช ื”ื˜ืœ: 10°C
ืœื—ื•ืช: 77%
ื‘ืจื•ืžื˜ืจ: 1018 hPa
ืขื ื ื™ื: Few Clouds
ืจืื•ืช: 10 km
Cloud details: Few Clouds 1158 m
Few Clouds 2438 m
2016/08/09 12:20 EKHN 091220Z AUTO 29027G39KT 270V340 9999NDV FEW038/// FEW080/// 14/10 Q1018
 
ESIB - Satenas (swe-Afb, Sweden
Distance from station: 'ืž 277km
ืขื•ื“ื›ืŸ: 05/07/2022 20:50
Few Clouds
Few Clouds
 ืจื•ื— ืž 'ื“ืž
ืจื•ื—: 'ื“ืž 24 km/h
ื˜ืžืคืจื˜ื•ืจื”: 15°C
ื ืงื•ื“ืช ื”ื˜ืœ: 11°C
ืœื—ื•ืช: 77%
ื‘ืจื•ืžื˜ืจ: 1012 hPa
ืขื ื ื™ื: Few Clouds
ืจืื•ืช: 10 km
Cloud details: Few Clouds 853 m
2022/07/05 18:50 ESIB 051850Z AUTO 23013KT 9999 FEW028/// 15/11 Q1012
EKHR - Horns Rev B Heli, Denmark
Distance from station: 'ื“ 282km
ืขื•ื“ื›ืŸ: 04/10/2016 06:20
ืœื ืžืขื•ื“ื›ืŸ
ื‘ื”ื™ืจ
ื‘ื”ื™ืจ
 ืจื•ื— ืž 'ืž
ืจื•ื—: 'ืž 4 km/h
ื˜ืžืคืจื˜ื•ืจื”: 11°C
ื ืงื•ื“ืช ื”ื˜ืœ: -49°C
ืœื—ื•ืช: 0%
ื‘ืจื•ืžื˜ืจ: 1038 hPa
ืขื ื ื™ื: ื‘ื”ื™ืจ
ืจืื•ืช: 10 km
2016/10/04 04:20 EKHR 040420Z AUTO 08002KT 9999NDV NCD 11/M49 Q1038